createdAt,value
2023-04-07T00:00:49.082Z,100759.77
2023-04-07T00:03:22.071Z,100763.27
2023-04-07T00:05:51.114Z,100762.73
2023-04-07T00:08:19.908Z,100761.48
2023-04-07T00:10:48.668Z,100762.02
2023-04-07T00:13:17.470Z,100763.73
2023-04-07T00:15:46.263Z,100766.08
2023-04-07T00:18:15.031Z,100763.10
2023-04-07T00:20:43.898Z,100762.89
2023-04-07T00:23:12.635Z,100762.38
2023-04-07T00:25:41.428Z,100762.06
2023-04-07T00:28:10.222Z,100760.15
2023-04-07T00:30:39.024Z,100763.52
2023-04-07T00:33:09.743Z,100760.52
2023-04-07T00:35:38.841Z,100755.39
2023-04-07T00:38:07.811Z,100755.75
2023-04-07T00:40:36.743Z,100754.84
2023-04-07T00:43:05.884Z,100756.92
2023-04-07T00:45:35.174Z,100758.13
2023-04-07T00:48:05.930Z,100759.08
2023-04-07T00:50:34.903Z,100757.64
2023-04-07T00:53:16.476Z,100761.68
2023-04-07T00:55:45.522Z,100760.11
2023-04-07T00:58:14.655Z,100760.47
2023-04-07T01:01:07.201Z,100761.17
2023-04-07T01:04:33.561Z,100762.45
2023-04-07T01:07:19.614Z,100760.21
2023-04-07T01:10:10.765Z,100765.20
2023-04-07T01:13:12.576Z,100766.10
2023-04-07T01:15:43.246Z,100769.62
2023-04-07T01:18:23.109Z,100769.80
2023-04-07T01:20:57.086Z,100774.40
2023-04-07T01:24:01.343Z,100772.49
2023-04-07T01:26:34.173Z,100769.19
2023-04-07T01:29:37.629Z,100771.52
2023-04-07T01:32:08.976Z,100772.73
2023-04-07T01:34:39.278Z,100767.45
2023-04-07T01:37:09.527Z,100769.03
2023-04-07T01:39:39.699Z,100769.01
2023-04-07T01:42:09.842Z,100771.11
2023-04-07T01:44:39.382Z,100770.40
2023-04-07T01:47:08.947Z,100769.71
2023-04-07T01:49:39.423Z,100774.09
2023-04-07T01:52:08.905Z,100774.77
2023-04-07T01:54:38.226Z,100777.72
2023-04-07T02:00:47.265Z,100778.31
2023-04-07T02:03:43.656Z,100775.13
2023-04-07T02:06:19.132Z,100776.14
2023-04-07T02:09:05.648Z,100772.81
2023-04-07T02:11:37.854Z,100773.52
2023-04-07T02:14:08.798Z,100774.59
2023-04-07T02:16:49.030Z,100774.63
2023-04-07T02:19:18.414Z,100773.78
2023-04-07T02:21:49.083Z,100777.48
2023-04-07T02:24:24.583Z,100777.14
2023-04-07T02:26:53.333Z,100781.39
2023-04-07T02:29:22.099Z,100783.10
2023-04-07T02:31:50.919Z,100787.62
2023-04-07T02:34:19.844Z,100790.91
2023-04-07T02:36:48.792Z,100792.05
2023-04-07T02:39:17.588Z,100793.77
2023-04-07T02:41:46.438Z,100793.75
2023-04-07T02:44:24.549Z,100795.44
2023-04-07T02:46:53.404Z,100800.92
2023-04-07T02:49:22.258Z,100800.00
2023-04-07T02:51:51.288Z,100801.39
2023-04-07T02:54:19.891Z,100803.13
2023-04-07T02:56:48.578Z,100802.84
2023-04-07T02:59:17.282Z,100811.00
2023-04-07T03:01:46.207Z,100810.98
2023-04-07T03:04:15.192Z,100810.93
2023-04-07T03:06:44.742Z,100812.71
2023-04-07T03:09:16.315Z,100811.11
2023-04-07T03:11:45.120Z,100811.27
2023-04-07T03:14:13.996Z,100811.83
2023-04-07T03:27:58.415Z,100820.55
2023-04-07T03:30:27.297Z,100825.91
2023-04-07T03:32:54.832Z,100825.00
2023-04-07T03:35:22.829Z,100826.88
2023-04-07T03:37:50.275Z,100826.73
2023-04-07T03:40:21.076Z,100830.20
2023-04-07T03:42:48.639Z,100832.02
2023-04-07T03:45:19.318Z,100835.17
2023-04-07T03:47:48.895Z,100837.97
2023-04-07T03:50:16.775Z,100841.30
2023-04-07T03:52:53.208Z,100845.33
2023-04-07T03:55:25.543Z,100852.16
2023-04-07T03:57:56.416Z,100855.73
2023-04-07T04:00:24.947Z,100860.67
2023-04-07T04:03:02.901Z,100865.13
2023-04-07T04:05:36.754Z,100872.11
2023-04-07T04:08:08.153Z,100875.42
2023-04-07T04:35:38.222Z,100903.39
2023-04-07T04:38:12.303Z,100902.34
2023-04-07T04:40:43.351Z,100902.10
2023-04-07T04:43:11.684Z,100902.14
2023-04-07T04:45:40.611Z,100901.73
2023-04-07T04:48:10.606Z,100906.61
2023-04-07T04:50:38.002Z,100907.84
2023-04-07T04:53:09.961Z,100906.64
2023-04-07T04:55:46.691Z,100911.95
2023-04-07T04:58:16.043Z,100918.83
2023-04-07T05:00:47.271Z,100922.41
2023-04-07T05:03:15.304Z,100930.60
2023-04-07T05:05:48.256Z,100937.61
2023-04-07T05:08:16.006Z,100939.55
2023-04-07T05:10:43.591Z,100942.38
2023-04-07T05:13:13.633Z,100943.27
2023-04-07T05:29:30.422Z,100951.42
2023-04-07T05:31:58.730Z,100952.17
2023-04-07T05:34:28.115Z,100951.23
2023-04-07T05:36:56.320Z,100949.84
2023-04-07T05:39:24.131Z,100946.33
2023-04-07T05:41:53.760Z,100950.42
2023-04-07T05:44:24.036Z,100949.77
2023-04-07T05:46:51.926Z,100951.19
2023-04-07T05:49:21.252Z,100953.80
2023-04-07T05:51:53.519Z,100962.21
2023-04-07T05:54:21.679Z,100965.72
2023-04-07T06:10:23.559Z,100976.49
2023-04-07T06:12:53.053Z,100975.20
2023-04-07T06:15:22.038Z,100976.08
2023-04-07T06:17:51.012Z,100978.35
2023-04-07T06:20:23.304Z,100976.98
2023-04-07T06:22:54.003Z,100983.02
2023-04-07T06:25:23.009Z,100985.83
2023-04-07T06:27:52.802Z,100984.38
2023-04-07T06:30:21.917Z,100986.67
2023-04-07T06:32:51.753Z,100992.27
2023-04-07T06:35:21.201Z,100996.14
2023-04-07T06:37:49.960Z,100998.23
2023-04-07T06:40:18.949Z,100989.88
2023-04-07T06:42:48.027Z,101000.30
2023-04-07T06:45:23.965Z,101001.51
2023-04-07T06:47:52.960Z,101006.10
2023-04-07T06:50:22.493Z,101002.39
2023-04-07T06:52:51.404Z,101002.41
2023-04-07T06:55:20.465Z,101002.25
2023-04-07T06:57:51.122Z,101008.63
2023-04-07T07:00:23.312Z,101012.56
2023-04-07T07:02:52.436Z,101015.23
2023-04-07T07:05:22.040Z,101021.06
2023-04-07T07:07:52.257Z,101023.71
2023-04-07T07:10:22.907Z,101028.67
2023-04-07T07:12:52.235Z,101030.30
2023-04-07T07:15:21.233Z,101032.79
2023-04-07T07:17:50.095Z,101031.75
2023-04-07T07:20:19.027Z,101035.11
2023-04-07T07:22:47.919Z,101034.08
2023-04-07T07:25:16.980Z,101037.15
2023-04-07T07:27:46.059Z,101038.23
2023-04-07T07:30:14.998Z,101040.73
2023-04-07T07:32:51.168Z,101041.97
2023-04-07T07:35:21.643Z,101044.10
2023-04-07T07:37:50.477Z,101049.05
2023-04-07T07:40:19.589Z,101052.02
2023-04-07T07:42:48.312Z,101057.14
2023-04-07T07:45:19.835Z,101058.38
2023-04-07T07:47:48.767Z,101057.46
2023-04-07T07:50:17.687Z,101057.49
2023-04-07T07:52:48.002Z,101059.44
2023-04-07T07:55:16.924Z,101066.88
2023-04-07T07:57:45.654Z,101071.81
2023-04-07T08:00:14.845Z,101073.24
2023-04-07T08:02:43.582Z,101079.61
2023-04-07T08:05:13.120Z,101084.21
2023-04-07T08:07:43.315Z,101086.33
2023-04-07T08:10:12.337Z,101086.54
2023-04-07T08:12:41.309Z,101080.88
2023-04-07T08:15:10.546Z,101087.56
2023-04-07T08:17:39.523Z,101082.97
2023-04-07T08:20:10.841Z,101082.45
2023-04-07T08:22:40.550Z,101085.10
2023-04-07T08:25:09.448Z,101086.20
2023-04-07T08:27:38.522Z,101087.08
2023-04-07T08:30:08.160Z,101087.80
2023-04-07T08:32:43.738Z,101082.66
2023-04-07T08:35:12.880Z,101087.27
2023-04-07T08:37:44.579Z,101083.02
2023-04-07T08:40:14.033Z,101081.95
2023-04-07T08:42:49.527Z,101085.13
2023-04-07T08:45:19.794Z,101084.77
2023-04-07T08:47:59.495Z,101087.79
2023-04-07T08:50:29.715Z,101088.43
2023-04-07T09:04:12.111Z,101088.61
2023-04-07T09:06:39.601Z,101092.39
2023-04-07T09:09:06.969Z,101097.10
2023-04-07T09:11:40.591Z,101097.68
2023-04-07T09:14:08.073Z,101097.14
2023-04-07T09:16:35.745Z,101108.34
2023-04-07T09:19:03.264Z,101109.31
2023-04-07T09:21:51.930Z,101114.48
2023-04-07T09:24:26.376Z,101111.23
2023-04-07T09:27:19.922Z,101116.04
2023-04-07T09:29:47.776Z,101116.48
2023-04-07T09:32:43.329Z,101120.91
2023-04-07T09:35:11.192Z,101122.92
2023-04-07T09:37:38.911Z,101120.97
2023-04-07T09:40:07.596Z,101122.04
2023-04-07T09:42:37.444Z,101116.14
2023-04-07T09:45:05.237Z,101117.55
2023-04-07T09:50:35.408Z,101118.41
2023-04-07T09:53:05.133Z,101118.42
2023-04-07T09:55:35.161Z,101114.11
2023-04-07T09:58:05.020Z,101118.47
2023-04-07T10:00:33.908Z,101121.46
2023-04-07T10:03:04.625Z,101123.94
2023-04-07T10:05:35.569Z,101121.84
2023-04-07T10:08:07.456Z,101125.52
2023-04-07T10:10:37.167Z,101123.83
2023-04-07T10:13:07.138Z,101126.63
2023-04-07T10:15:37.585Z,101127.23
2023-04-07T10:18:09.246Z,101125.15
2023-04-07T10:20:42.461Z,101131.73
2023-04-07T10:23:29.221Z,101129.16
2023-04-07T10:26:00.815Z,101128.48
2023-04-07T10:28:32.829Z,101131.92
2023-04-07T10:31:02.679Z,101129.67
2023-04-07T10:33:53.133Z,101130.91
2023-04-07T10:36:22.468Z,101135.64
2023-04-07T10:39:09.633Z,101138.61
2023-04-07T10:41:42.380Z,101134.27
2023-04-07T10:44:44.149Z,101134.41
2023-04-07T10:47:14.421Z,101129.77
2023-04-07T10:50:21.891Z,101125.55
2023-04-07T10:53:15.699Z,101125.97
2023-04-07T10:55:46.895Z,101126.70
2023-04-07T10:58:24.530Z,101123.81
2023-04-07T11:01:08.817Z,101120.77
2023-04-07T11:03:41.441Z,101117.42
2023-04-07T11:06:14.657Z,101117.70
2023-04-07T11:08:49.437Z,101119.09
2023-04-07T11:11:38.855Z,101118.31
2023-04-07T11:14:07.645Z,101120.13
2023-04-07T11:16:39.906Z,101118.09
2023-04-07T11:19:08.678Z,101117.34
2023-04-07T11:21:37.316Z,101114.05
2023-04-07T11:24:06.678Z,101112.88
2023-04-07T11:26:42.036Z,101109.46
2023-04-07T11:29:12.364Z,101113.05
2023-04-07T11:31:41.024Z,101110.36
2023-04-07T11:34:09.783Z,101110.92
2023-04-07T11:36:41.354Z,101116.81
2023-04-07T11:39:31.747Z,101114.06
2023-04-07T11:42:00.525Z,101116.04
2023-04-07T11:44:29.245Z,101115.89
2023-04-07T11:47:05.776Z,101114.30
2023-04-07T11:49:34.701Z,101118.39
2023-04-07T11:52:07.470Z,101118.69
2023-04-07T11:54:50.861Z,101122.38
2023-04-07T11:57:29.635Z,101123.85
2023-04-07T12:00:15.861Z,101128.66
2023-04-07T12:02:44.740Z,101129.80
2023-04-07T12:05:13.730Z,101129.17
2023-04-07T12:07:54.120Z,101132.96
2023-04-07T12:10:27.946Z,101132.88
2023-04-07T12:12:59.311Z,101131.70
2023-04-07T12:15:28.268Z,101136.45
2023-04-07T12:17:57.111Z,101136.88
2023-04-07T12:20:26.031Z,101137.02
2023-04-07T12:22:54.844Z,101131.47
2023-04-07T12:25:23.872Z,101130.20
2023-04-07T12:27:52.745Z,101131.23
2023-04-07T12:30:21.717Z,101127.90
2023-04-07T12:32:50.422Z,101129.90
2023-04-07T12:35:19.238Z,101128.16
2023-04-07T12:37:50.023Z,101130.55
2023-04-07T12:40:19.352Z,101123.56
2023-04-07T12:42:48.338Z,101130.77
2023-04-07T12:45:17.021Z,101134.55
2023-04-07T12:47:45.835Z,101131.47
2023-04-07T12:50:14.800Z,101130.84
2023-04-07T12:52:43.757Z,101138.50
2023-04-07T12:55:14.487Z,101134.88
2023-04-07T12:57:44.548Z,101125.80
2023-04-07T13:00:14.927Z,101131.39
2023-04-07T13:02:43.908Z,101132.10
2023-04-07T13:05:13.024Z,101131.05
2023-04-07T13:07:41.815Z,101126.21
2023-04-07T13:10:11.499Z,101125.48
2023-04-07T13:12:40.262Z,101129.77
2023-04-07T13:15:09.523Z,101124.55
2023-04-07T13:17:38.909Z,101127.34
2023-04-07T13:20:08.599Z,101128.86
2023-04-07T13:22:46.097Z,101132.66
2023-04-07T13:25:17.871Z,101132.24
2023-04-07T13:27:46.868Z,101133.09
2023-04-07T13:30:16.378Z,101131.00
2023-04-07T13:32:50.003Z,101129.45
2023-04-07T13:35:19.511Z,101131.67
2023-04-07T13:37:48.075Z,101130.35
2023-04-07T13:40:16.724Z,101133.80
2023-04-07T13:42:46.281Z,101129.17
2023-04-07T13:45:16.197Z,101131.58
2023-04-07T13:47:44.841Z,101127.27
2023-04-07T13:50:13.505Z,101125.54
2023-04-07T13:52:42.208Z,101123.96
2023-04-07T13:55:11.109Z,101123.38
2023-04-07T13:57:39.811Z,101118.80
2023-04-07T14:00:09.301Z,101119.74
2023-04-07T14:02:38.896Z,101123.89
2023-04-07T14:05:07.867Z,101120.02
2023-04-07T14:07:36.423Z,101119.52
2023-04-07T14:10:05.584Z,101117.54
2023-04-07T14:12:34.804Z,101121.32
2023-04-07T14:15:04.124Z,101118.48
2023-04-07T14:17:32.808Z,101115.75
2023-04-07T14:20:01.382Z,101115.18
2023-04-07T14:22:30.324Z,101113.23
2023-04-07T14:24:59.074Z,101114.98
2023-04-07T14:27:31.357Z,101115.63
2023-04-07T14:30:00.389Z,101118.27
2023-04-07T14:32:33.580Z,101120.86
2023-04-07T14:35:02.564Z,101121.09
2023-04-07T14:37:31.387Z,101120.71
2023-04-07T14:40:03.080Z,101120.48
2023-04-07T14:42:32.402Z,101119.05
2023-04-07T14:45:02.040Z,101121.63
2023-04-07T14:47:33.216Z,101123.75
2023-04-07T14:50:02.068Z,101121.60
2023-04-07T14:52:31.108Z,101124.84
2023-04-07T15:08:47.750Z,101133.21
2023-04-07T15:11:16.703Z,101136.66
2023-04-07T15:13:46.828Z,101136.63
2023-04-07T15:16:19.415Z,101136.66
2023-04-07T15:18:48.942Z,101136.07
2023-04-07T15:21:19.028Z,101137.55
2023-04-07T15:23:47.940Z,101144.00
2023-04-07T15:26:17.132Z,101150.59
2023-04-07T15:28:47.771Z,101150.54
2023-04-07T15:31:18.829Z,101151.01
2023-04-07T15:33:50.227Z,101155.04
2023-04-07T15:49:59.851Z,101169.09
2023-04-07T15:52:29.134Z,101175.33
2023-04-07T15:54:57.904Z,101179.00
2023-04-07T15:57:26.545Z,101181.77
2023-04-07T15:59:55.306Z,101184.16
2023-04-07T16:02:24.080Z,101187.05
2023-04-07T16:04:54.365Z,101195.27
2023-04-07T16:07:23.117Z,101197.63
2023-04-07T16:09:51.939Z,101208.98
2023-04-07T16:12:20.922Z,101208.34
2023-04-07T16:14:50.663Z,101218.84
2023-04-07T16:17:19.405Z,101219.20
2023-04-07T16:19:47.996Z,101224.90
2023-04-07T16:22:16.594Z,101223.15
2023-04-07T16:24:45.214Z,101224.23
2023-04-07T16:27:13.998Z,101224.25
2023-04-07T16:29:42.839Z,101226.20
2023-04-07T16:32:11.798Z,101227.64
2023-04-07T16:34:40.564Z,101229.77
2023-04-07T16:37:09.662Z,101231.91
2023-04-07T16:39:38.305Z,101236.35
2023-04-07T16:42:07.030Z,101235.64
2023-04-07T16:44:35.726Z,101241.48
2023-04-07T16:47:04.420Z,101243.09
2023-04-07T16:49:33.155Z,101245.91
2023-04-07T16:52:01.884Z,101249.82
2023-04-07T16:54:30.684Z,101257.27
2023-04-07T16:56:59.443Z,101262.02
2023-04-07T16:59:28.201Z,101271.75
2023-04-07T17:01:57.813Z,101270.68
2023-04-07T17:04:31.207Z,101275.64
2023-04-07T17:07:03.417Z,101280.06
2023-04-07T17:09:32.418Z,101283.25
2023-04-07T17:12:02.276Z,101282.00
2023-04-07T17:14:31.018Z,101287.84
2023-04-07T17:17:01.624Z,101292.63
2023-04-07T17:19:30.320Z,101293.33
2023-04-07T17:21:58.974Z,101297.73
2023-04-07T17:24:27.861Z,101301.78
2023-04-07T17:26:56.521Z,101304.95
2023-04-07T17:29:29.238Z,101308.48
2023-04-07T17:32:00.843Z,101315.72
2023-04-07T17:34:30.670Z,101319.42
2023-04-07T17:37:03.371Z,101318.88
2023-04-07T17:39:33.273Z,101325.95
2023-04-07T17:42:02.112Z,101328.94
2023-04-07T17:44:31.258Z,101331.39
2023-04-07T17:47:00.587Z,101332.01
2023-04-07T17:49:29.270Z,101332.72
2023-04-07T17:51:57.950Z,101334.27
2023-04-07T17:54:26.747Z,101339.59
2023-04-07T17:56:55.760Z,101343.30
2023-04-07T17:59:24.376Z,101339.41
2023-04-07T18:01:53.136Z,101340.83
2023-04-07T18:04:22.025Z,101342.38
2023-04-07T18:06:51.477Z,101344.98
2023-04-07T18:09:20.079Z,101351.31
2023-04-07T18:11:48.938Z,101351.45
2023-04-07T18:14:19.781Z,101354.86
2023-04-07T18:16:48.406Z,101359.91
2023-04-07T18:19:22.665Z,101361.08
2023-04-07T18:21:53.156Z,101364.55
2023-04-07T18:24:22.125Z,101366.58
2023-04-07T18:26:50.831Z,101369.41
2023-04-07T18:29:19.535Z,101370.77
2023-04-07T18:31:48.310Z,101371.99
2023-04-07T18:34:22.355Z,101375.34
2023-04-07T18:36:51.000Z,101377.43
2023-04-07T18:39:19.638Z,101383.82
2023-04-07T18:41:49.212Z,101384.58
2023-04-07T18:44:18.188Z,101385.90
2023-04-07T18:46:46.895Z,101394.20
2023-04-07T18:49:15.673Z,101397.40
2023-04-07T18:51:46.193Z,101397.20
2023-04-07T18:54:14.997Z,101397.08
2023-04-07T18:56:43.598Z,101394.98
2023-04-07T18:59:14.389Z,101396.92
2023-04-07T19:01:43.382Z,101398.89
2023-04-07T19:04:40.754Z,101399.11
2023-04-07T19:07:09.382Z,101401.02
2023-04-07T19:09:38.043Z,101402.19
2023-04-07T19:12:07.526Z,101406.60
2023-04-07T19:14:36.171Z,101408.16
2023-04-07T19:17:05.052Z,101410.54
2023-04-07T19:19:33.666Z,101413.46
2023-04-07T19:22:03.840Z,101415.67
2023-04-07T19:24:32.534Z,101416.38
2023-04-07T19:27:01.638Z,101420.05
2023-04-07T19:29:32.236Z,101419.63
2023-04-07T19:32:01.253Z,101419.05
2023-04-07T19:34:29.995Z,101414.88
2023-04-07T19:36:59.673Z,101417.80
2023-04-07T19:39:31.103Z,101412.06
2023-04-07T19:42:01.271Z,101409.54
2023-04-07T19:44:31.429Z,101416.92
2023-04-07T19:47:00.175Z,101420.26
2023-04-07T19:49:28.983Z,101418.94
2023-04-07T19:51:57.639Z,101417.42
2023-04-07T19:54:26.425Z,101412.42
2023-04-07T19:56:58.422Z,101421.44
2023-04-07T19:59:27.029Z,101417.48
2023-04-07T20:01:55.905Z,101418.82
2023-04-07T20:04:24.563Z,101420.89
2023-04-07T20:06:53.206Z,101425.96
2023-04-07T20:09:22.988Z,101426.81
2023-04-07T20:11:52.284Z,101430.98
2023-04-07T20:14:21.167Z,101429.77
2023-04-07T20:16:50.107Z,101428.11
2023-04-07T20:19:22.073Z,101430.59
2023-04-07T20:21:57.210Z,101430.04
2023-04-07T20:24:25.932Z,101430.71
2023-04-07T20:26:54.443Z,101426.95
2023-04-07T20:29:23.044Z,101434.10
2023-04-07T20:31:51.635Z,101434.80
2023-04-07T20:34:20.256Z,101434.98
2023-04-07T20:36:51.855Z,101436.73
2023-04-07T20:39:20.507Z,101434.61
2023-04-07T20:41:49.014Z,101435.19
2023-04-07T20:44:18.533Z,101436.73
2023-04-07T20:46:47.487Z,101438.02
2023-04-07T20:49:16.167Z,101437.48
2023-04-07T21:04:07.335Z,101441.81
2023-04-07T21:06:36.126Z,101444.45
2023-04-07T21:09:06.011Z,101446.11
2023-04-07T21:11:35.617Z,101447.02
2023-04-07T21:14:04.702Z,101451.03
2023-04-07T21:16:33.400Z,101447.39
2023-04-07T21:19:03.688Z,101449.11
2023-04-07T21:21:32.464Z,101450.17
2023-04-07T21:24:00.993Z,101452.84
2023-04-07T21:26:29.798Z,101451.35
2023-04-07T21:28:58.476Z,101449.27
2023-04-07T21:31:27.157Z,101454.16
2023-04-07T21:33:55.953Z,101452.20
2023-04-07T21:36:24.693Z,101455.52
2023-04-07T21:38:53.991Z,101456.30
2023-04-07T21:41:22.684Z,101458.29
2023-04-07T21:43:51.558Z,101454.20
2023-04-07T21:46:20.140Z,101455.94
2023-04-07T21:48:49.513Z,101458.85
2023-04-07T21:51:19.283Z,101457.45
2023-04-07T21:53:47.845Z,101460.11
2023-04-07T21:56:16.515Z,101457.17
2023-04-07T21:58:46.785Z,101453.15
2023-04-07T22:01:18.010Z,101455.33
2023-04-07T22:03:47.647Z,101452.12
2023-04-07T22:06:16.338Z,101450.13
2023-04-07T22:08:54.849Z,101450.58
2023-04-07T22:11:27.802Z,101450.71
2023-04-07T22:13:56.456Z,101451.55
2023-04-07T22:16:29.700Z,101452.77
2023-04-07T22:18:58.698Z,101454.55
2023-04-07T22:21:27.526Z,101452.43
2023-04-07T22:23:56.222Z,101453.67
2023-04-07T22:26:24.925Z,101447.99
2023-04-07T22:28:53.587Z,101453.14
2023-04-07T22:31:22.246Z,101450.43
2023-04-07T22:33:50.838Z,101454.35
2023-04-07T22:36:19.456Z,101456.42
2023-04-07T22:38:48.334Z,101457.51
2023-04-07T22:41:17.230Z,101456.39
2023-04-07T22:43:45.929Z,101455.45
2023-04-07T22:46:16.108Z,101452.19
2023-04-07T22:48:44.719Z,101451.55
2023-04-07T22:51:13.384Z,101449.73
2023-04-07T22:53:41.856Z,101449.74
2023-04-07T22:56:10.752Z,101450.98
2023-04-07T22:58:39.519Z,101449.80
2023-04-07T23:01:08.121Z,101446.27
2023-04-07T23:03:36.927Z,101443.88
2023-04-07T23:06:05.811Z,101443.73
2023-04-07T23:08:34.711Z,101438.48
2023-04-07T23:11:03.290Z,101437.79
2023-04-07T23:13:31.964Z,101435.27
2023-04-07T23:16:03.860Z,101432.50
2023-04-07T23:18:32.672Z,101435.02
2023-04-07T23:21:01.284Z,101434.69
2023-04-07T23:23:29.982Z,101433.92
2023-04-07T23:25:58.615Z,101430.84
2023-04-07T23:28:28.228Z,101427.25
2023-04-07T23:30:57.488Z,101427.02
2023-04-07T23:33:26.163Z,101424.48
2023-04-07T23:35:55.349Z,101426.88
2023-04-07T23:38:24.525Z,101430.75
2023-04-07T23:40:53.521Z,101427.77
2023-04-07T23:43:22.221Z,101427.76
2023-04-07T23:45:51.054Z,101429.79
2023-04-07T23:48:19.693Z,101428.20
2023-04-07T23:50:50.823Z,101429.89
2023-04-07T23:53:19.802Z,101430.02
2023-04-07T23:55:50.621Z,101434.54
2023-04-07T23:58:19.336Z,101437.82
